Time;durP1;ratioP1;P1;durP2;ratioP2;P2;SDS_P1;SDS_P2;PMS_P1;PMS_P2;Temp;Humidity;BMP_temperature;BMP_pressure;BME280_temperature;BME280_humidity;BME280_pressure;Samples;Min_cycle;Max_cycle;Signal;HPM_P1;HPM_P2
2022/05/28 00:00:53;;;;;;;8.90;1.40;;;10.70;99.90;;;;;;5089979;28;20056;-79
2022/05/28 00:03:20;;;;;;;10.55;1.80;;;10.90;99.90;;;;;;5089363;28;20048;-77
2022/05/28 00:05:46;;;;;;;5.28;1.05;;;10.60;99.90;;;;;;5089508;28;20055;-77
2022/05/28 00:08:12;;;;;;;11.90;1.10;;;10.60;99.90;;;;;;5089309;28;20453;-78
2022/05/28 00:10:37;;;;;;;13.30;1.63;;;10.80;99.90;;;;;;5072177;28;20067;-79
2022/05/28 00:13:03;;;;;;;8.48;1.27;;;10.50;99.90;;;;;;5089600;28;20521;-77
2022/05/28 00:15:29;;;;;;;8.57;1.00;;;10.80;99.90;;;;;;5089796;28;20048;-77
2022/05/28 00:17:56;;;;;;;7.03;1.40;;;10.50;99.90;;;;;;5089776;28;20058;-76
2022/05/28 00:20:21;;;;;;;7.68;1.35;;;10.40;99.90;;;;;;5089072;28;20060;-77
2022/05/28 00:22:47;;;;;;;10.23;1.42;;;10.30;99.90;;;;;;5089813;28;20406;-75
2022/05/28 00:25:16;;;;;;;8.40;1.40;;;10.30;99.90;;;;;;5071577;28;20059;-76
2022/05/28 00:27:42;;;;;;;5.60;1.20;;;10.30;99.90;;;;;;5071195;28;20074;-76
2022/05/28 00:30:10;;;;;;;16.05;1.40;;;10.30;99.90;;;;;;5072005;28;20542;-77
2022/05/28 00:32:36;;;;;;;15.43;1.50;;;10.30;99.90;;;;;;5089723;28;20044;-79
2022/05/28 00:35:04;;;;;;;11.68;1.60;;;10.30;99.90;;;;;;5089056;28;20546;-77
2022/05/28 00:37:30;;;;;;;9.70;1.48;;;10.30;99.90;;;;;;5089724;28;20471;-79
2022/05/28 00:39:56;;;;;;;11.70;1.50;;;10.30;99.90;;;;;;5089892;28;20147;-75
2022/05/28 00:42:22;;;;;;;14.13;1.48;;;10.40;99.90;;;;;;5055354;28;20115;-79
2022/05/28 00:44:48;;;;;;;11.98;1.38;;;10.30;99.90;;;;;;5071381;28;20052;-78
2022/05/28 00:47:14;;;;;;;9.48;1.30;;;10.70;99.90;;;;;;5089315;28;20437;-79
2022/05/28 00:49:40;;;;;;;15.27;1.60;;;10.60;99.90;;;;;;5089002;28;20051;-76
2022/05/28 00:52:09;;;;;;;11.40;1.88;;;10.30;99.90;;;;;;5089540;28;20042;-76
2022/05/28 00:54:44;;;;;;;9.02;1.50;;;10.30;99.90;;;;;;5089680;28;20044;-77
2022/05/28 00:57:11;;;;;;;12.73;1.70;;;10.30;99.90;;;;;;5089820;28;20048;-76
2022/05/28 00:59:37;;;;;;;11.45;1.50;;;10.30;99.90;;;;;;5089051;28;20044;-75
2022/05/28 01:02:22;;;;;;;8.77;1.50;;;10.20;99.90;;;;;;5089114;28;20051;-77
2022/05/28 01:04:58;;;;;;;14.68;2.72;;;10.20;99.90;;;;;;5089630;28;20048;-75
2022/05/28 01:07:44;;;;;;;17.23;1.60;;;10.10;99.90;;;;;;5089259;28;20052;-76
2022/05/28 01:10:31;;;;;;;10.10;1.92;;;10.10;99.90;;;;;;5089639;28;20036;-76
2022/05/28 01:13:24;;;;;;;12.18;1.30;;;10.00;99.90;;;;;;5089580;28;20048;-76
2022/05/28 01:16:07;;;;;;;10.45;1.55;;;10.00;99.90;;;;;;5089409;28;20126;-77
2022/05/28 01:18:41;;;;;;;10.68;1.63;;;10.00;99.90;;;;;;5071659;28;20368;-76
2022/05/28 01:21:13;;;;;;;10.57;1.45;;;9.90;99.90;;;;;;5070821;28;20063;-76
2022/05/28 01:24:06;;;;;;;10.95;1.63;;;9.80;99.90;;;;;;5072677;28;20512;-77
2022/05/28 01:26:56;;;;;;;14.48;1.23;;;9.80;99.90;;;;;;5072296;28;20113;-77
2022/05/28 01:29:25;;;;;;;11.77;1.42;;;9.80;99.90;;;;;;5054545;28;20088;-78
2022/05/28 01:31:51;;;;;;;12.98;1.55;;;9.70;99.90;;;;;;5072764;28;20381;-78
2022/05/28 01:34:19;;;;;;;7.38;1.08;;;9.70;99.90;;;;;;5072272;28;20051;-76
2022/05/28 01:36:47;;;;;;;10.95;1.85;;;9.70;99.90;;;;;;5072377;28;20128;-77
2022/05/28 01:39:14;;;;;;;9.57;1.38;;;9.70;99.90;;;;;;5072553;28;20056;-77
2022/05/28 01:41:40;;;;;;;14.82;2.53;;;9.70;99.90;;;;;;5072585;28;20165;-75
2022/05/28 01:44:11;;;;;;;9.82;1.33;;;9.70;99.90;;;;;;5072195;28;20056;-78
2022/05/28 01:46:39;;;;;;;12.68;1.50;;;9.70;99.90;;;;;;5072744;28;20040;-77
2022/05/28 01:49:08;;;;;;;10.23;1.00;;;9.70;99.90;;;;;;5072581;28;20052;-77
2022/05/28 01:51:37;;;;;;;15.30;1.45;;;9.60;99.90;;;;;;5072086;28;20569;-77
2022/05/28 01:54:07;;;;;;;11.88;1.55;;;9.70;99.90;;;;;;5053416;28;20052;-74
2022/05/28 01:56:36;;;;;;;17.00;1.77;;;9.60;99.90;;;;;;5072180;28;20049;-78
2022/05/28 01:59:03;;;;;;;11.15;1.60;;;9.60;99.90;;;;;;5071929;28;20049;-75
2022/05/28 02:01:29;;;;;;;12.52;2.00;;;9.60;99.90;;;;;;5070399;28;20043;-77
2022/05/28 02:03:58;;;;;;;15.10;2.28;;;9.70;99.90;;;;;;5071748;28;20036;-78
2022/05/28 02:06:24;;;;;;;10.77;1.63;;;9.50;99.90;;;;;;5072096;28;20044;-76
2022/05/28 02:08:51;;;;;;;13.00;1.50;;;9.50;99.90;;;;;;5071738;28;20099;-77
2022/05/28 02:11:20;;;;;;;11.55;1.98;;;9.90;99.90;;;;;;5071983;28;20119;-75
2022/05/28 02:14:05;;;;;;;11.68;1.55;;;9.80;99.90;;;;;;5053985;28;20048;-76
2022/05/28 02:16:54;;;;;;;13.35;1.58;;;9.50;99.90;;;;;;5071512;28;20482;-76
2022/05/28 02:19:51;;;;;;;10.52;1.65;;;9.50;99.90;;;;;;4974824;28;20054;-75
2022/05/28 02:22:24;;;;;;;14.45;1.52;;;9.50;99.90;;;;;;4896220;29;20059;-75
2022/05/28 02:24:56;;;;;;;5.85;1.27;;;9.40;99.90;;;;;;4913127;29;20084;-76
2022/05/28 02:27:24;;;;;;;13.63;1.88;;;9.50;99.90;;;;;;4912937;29;20409;-75
2022/05/28 02:29:50;;;;;;;12.73;1.63;;;9.50;99.90;;;;;;4912193;29;20059;-77
2022/05/28 02:32:22;;;;;;;18.50;1.65;;;9.50;99.90;;;;;;4910963;29;20048;-76
2022/05/28 02:34:50;;;;;;;14.90;2.08;;;9.50;99.90;;;;;;4912454;29;20055;-74
2022/05/28 02:37:19;;;;;;;14.35;1.65;;;9.60;99.90;;;;;;4896337;29;20177;-78
2022/05/28 02:39:45;;;;;;;13.00;1.63;;;9.90;99.90;;;;;;4912596;29;20457;-74
2022/05/28 02:42:11;;;;;;;16.73;2.13;;;9.60;99.90;;;;;;4912967;29;20054;-77
2022/05/28 02:44:36;;;;;;;8.75;1.70;;;9.60;99.90;;;;;;4912618;29;20423;-77
2022/05/28 02:47:03;;;;;;;16.33;1.70;;;9.60;99.90;;;;;;4912542;29;20056;-79
2022/05/28 02:49:29;;;;;;;13.20;1.80;;;9.60;99.90;;;;;;4892736;29;20125;-77
2022/05/28 02:51:55;;;;;;;17.13;1.83;;;9.60;99.90;;;;;;4902968;29;20164;-78
2022/05/28 02:54:22;;;;;;;12.55;1.65;;;10.10;99.90;;;;;;4912082;29;20052;-76
2022/05/28 02:56:48;;;;;;;14.70;1.90;;;9.70;99.90;;;;;;4934918;28;20137;-76
2022/05/28 02:59:15;;;;;;;9.93;1.80;;;9.70;99.90;;;;;;5015577;28;20080;-76
2022/05/28 03:01:41;;;;;;;20.15;2.97;;;9.70;99.90;;;;;;5050962;28;20045;-77
2022/05/28 03:04:08;;;;;;;16.00;2.13;;;9.70;99.90;;;;;;5050836;28;20124;-76
2022/05/28 03:06:37;;;;;;;15.55;1.85;;;9.70;99.90;;;;;;5052695;28;20053;-77
2022/05/28 03:09:05;;;;;;;13.95;2.15;;;9.60;99.90;;;;;;5070629;28;20411;-76
2022/05/28 03:11:30;;;;;;;17.45;2.55;;;9.70;99.90;;;;;;5070825;28;20388;-76
2022/05/28 03:13:56;;;;;;;17.08;2.63;;;9.70;99.90;;;;;;5070648;28;20097;-78
2022/05/28 03:16:23;;;;;;;13.65;1.92;;;9.70;99.90;;;;;;5070647;28;20491;-77
2022/05/28 03:18:48;;;;;;;21.55;2.50;;;9.70;99.90;;;;;;5070084;28;20041;-77
2022/05/28 03:21:14;;;;;;;16.48;2.10;;;9.70;99.90;;;;;;5067924;28;20060;-76
2022/05/28 03:23:39;;;;;;;16.48;2.88;;;9.70;99.90;;;;;;5052245;28;20066;-75
2022/05/28 03:26:17;;;;;;;16.40;2.10;;;9.70;99.90;;;;;;5070221;28;20074;-77
2022/05/28 03:28:43;;;;;;;15.52;2.28;;;9.70;99.90;;;;;;5070292;28;20049;-73
2022/05/28 03:31:09;;;;;;;15.95;1.88;;;9.60;99.90;;;;;;5032085;28;20064;-73
2022/05/28 03:33:35;;;;;;;18.38;2.17;;;9.60;99.90;;;;;;5050378;28;20404;-77
2022/05/28 03:36:01;;;;;;;16.33;3.03;;;9.60;99.90;;;;;;5032282;28;20407;-76
2022/05/28 03:38:26;;;;;;;15.00;2.40;;;9.80;99.90;;;;;;5050523;28;20036;-75
2022/05/28 03:40:52;;;;;;;14.50;2.42;;;10.00;99.90;;;;;;5050353;28;20434;-75
2022/05/28 03:43:18;;;;;;;16.23;2.53;;;9.60;99.90;;;;;;5050726;28;20082;-72
2022/05/28 03:45:43;;;;;;;13.88;2.15;;;9.60;99.90;;;;;;5070040;28;20495;-78
2022/05/28 03:48:11;;;;;;;13.98;2.17;;;9.60;99.90;;;;;;5069170;28;20090;-76
2022/05/28 03:50:37;;;;;;;16.92;2.65;;;9.60;99.90;;;;;;5070109;28;20063;-77
2022/05/28 03:53:03;;;;;;;21.15;2.70;;;9.70;99.90;;;;;;5069623;28;20041;-76
2022/05/28 03:55:29;;;;;;;17.00;2.42;;;9.70;99.90;;;;;;5069736;28;20089;-76
2022/05/28 03:57:55;;;;;;;20.73;2.35;;;9.80;99.90;;;;;;5070042;28;20048;-76
2022/05/28 04:00:21;;;;;;;14.05;2.90;;;9.80;99.90;;;;;;5064332;28;20048;-76
2022/05/28 04:02:47;;;;;;;15.35;2.63;;;9.80;99.90;;;;;;5051792;28;20388;-78
2022/05/28 04:05:13;;;;;;;17.88;2.42;;;9.80;99.90;;;;;;5070110;28;20040;-78
2022/05/28 04:07:39;;;;;;;14.65;2.00;;;9.80;99.90;;;;;;5069798;28;20135;-76
2022/05/28 04:10:06;;;;;;;21.02;2.80;;;9.80;99.90;;;;;;5069736;28;20047;-76
2022/05/28 04:12:32;;;;;;;10.88;2.20;;;9.80;99.90;;;;;;5069841;28;20155;-78
2022/05/28 04:14:58;;;;;;;11.57;2.20;;;9.80;99.90;;;;;;5069742;28;20253;-75
2022/05/28 04:17:24;;;;;;;10.48;2.08;;;9.80;99.90;;;;;;5069076;28;20475;-77
2022/05/28 04:19:50;;;;;;;17.98;2.55;;;9.70;99.90;;;;;;5051154;28;20048;-75
2022/05/28 04:22:16;;;;;;;11.70;2.58;;;9.70;99.90;;;;;;5069837;28;20128;-75
2022/05/28 04:24:42;;;;;;;12.85;2.70;;;9.80;99.90;;;;;;5069856;28;20079;-77
2022/05/28 04:27:08;;;;;;;27.20;3.22;;;9.80;99.90;;;;;;5051093;28;20553;-78
2022/05/28 04:29:33;;;;;;;13.05;1.77;;;9.80;99.90;;;;;;5068177;28;20044;-77
2022/05/28 04:31:59;;;;;;;23.60;2.83;;;9.80;99.90;;;;;;5069628;28;20058;-76
2022/05/28 04:34:25;;;;;;;16.75;2.42;;;9.80;99.90;;;;;;5069347;28;20076;-76
2022/05/28 04:36:51;;;;;;;18.05;1.95;;;9.90;99.90;;;;;;5069665;28;20041;-74
2022/05/28 04:39:16;;;;;;;19.75;2.70;;;9.90;99.90;;;;;;5069919;28;20098;-76
2022/05/28 04:41:42;;;;;;;17.48;2.28;;;10.00;99.90;;;;;;5051111;28;20040;-75
2022/05/28 04:44:07;;;;;;;21.42;2.80;;;10.20;99.90;;;;;;5069729;28;20037;-77
2022/05/28 04:46:33;;;;;;;20.30;2.38;;;10.00;99.90;;;;;;5069354;28;20480;-77
2022/05/28 04:48:59;;;;;;;13.65;2.08;;;10.10;99.90;;;;;;5069147;28;20055;-75
2022/05/28 04:51:24;;;;;;;16.95;2.35;;;10.10;99.90;;;;;;5051239;28;20044;-76
2022/05/28 04:53:50;;;;;;;16.65;2.55;;;10.20;99.90;;;;;;5069543;28;20057;-75
2022/05/28 04:56:16;;;;;;;13.95;2.20;;;10.20;99.90;;;;;;5069169;28;20044;-77
2022/05/28 04:58:42;;;;;;;19.33;2.72;;;10.20;99.90;;;;;;5069291;28;20487;-77
2022/05/28 05:01:12;;;;;;;14.43;2.72;;;10.30;99.90;;;;;;5068337;28;20091;-76
2022/05/28 05:03:37;;;;;;;13.25;2.20;;;10.30;99.90;;;;;;5073065;28;20045;-75
2022/05/28 05:06:03;;;;;;;15.38;2.88;;;10.30;99.90;;;;;;5072994;28;20518;-74
2022/05/28 05:08:30;;;;;;;21.42;2.47;;;10.30;99.90;;;;;;5072913;28;20052;-76
2022/05/28 05:10:56;;;;;;;21.88;2.40;;;10.30;99.90;;;;;;5055095;28;20051;-74
2022/05/28 05:13:22;;;;;;;11.48;2.25;;;10.30;99.90;;;;;;5072608;28;20483;-76
2022/05/28 05:15:48;;;;;;;25.52;2.55;;;10.30;99.90;;;;;;5072741;28;20044;-76
2022/05/28 05:18:13;;;;;;;17.65;2.45;;;10.40;99.90;;;;;;5072632;28;20116;-76
2022/05/28 05:20:39;;;;;;;19.08;2.55;;;10.40;99.90;;;;;;5081836;28;20114;-77
2022/05/28 05:23:05;;;;;;;20.92;2.60;;;10.40;99.90;;;;;;5092534;28;20048;-77
2022/05/28 05:25:32;;;;;;;21.45;2.38;;;10.50;99.90;;;;;;5074198;28;20052;-78
2022/05/28 05:27:57;;;;;;;16.95;2.38;;;10.50;99.90;;;;;;5074304;28;20048;-75
2022/05/28 05:30:23;;;;;;;11.63;2.38;;;10.40;99.90;;;;;;5092148;28;20106;-76
2022/05/28 05:32:49;;;;;;;13.30;2.28;;;10.80;99.90;;;;;;5092850;28;20044;-79
2022/05/28 05:35:15;;;;;;;18.00;2.65;;;10.50;99.90;;;;;;5092698;28;20047;-77
2022/05/28 05:37:40;;;;;;;16.02;2.05;;;10.60;99.90;;;;;;5092823;28;20089;-75
2022/05/28 05:40:07;;;;;;;13.13;2.00;;;10.60;99.90;;;;;;5092967;28;20077;-75
2022/05/28 05:42:33;;;;;;;12.65;2.20;;;10.60;99.90;;;;;;5092632;28;20040;-76
2022/05/28 05:44:59;;;;;;;9.63;1.73;;;10.60;99.90;;;;;;5074533;28;20407;-76
2022/05/28 05:47:24;;;;;;;20.42;2.30;;;10.60;99.90;;;;;;5092854;28;20094;-76
2022/05/28 05:49:50;;;;;;;13.40;2.17;;;10.50;99.90;;;;;;5092656;28;20608;-76
2022/05/28 05:52:17;;;;;;;12.00;1.75;;;10.60;99.90;;;;;;5092301;28;20039;-80
2022/05/28 05:54:42;;;;;;;11.45;1.95;;;10.60;99.90;;;;;;5092459;28;20048;-77
2022/05/28 05:57:08;;;;;;;13.20;2.03;;;10.70;99.90;;;;;;5073773;28;20047;-77
2022/05/28 05:59:34;;;;;;;9.15;1.77;;;10.70;99.90;;;;;;5091860;28;20478;-77
2022/05/28 06:02:00;;;;;;;8.07;1.48;;;10.80;99.90;;;;;;5074372;28;20165;-78
2022/05/28 06:04:26;;;;;;;12.32;1.95;;;11.00;99.90;;;;;;5092229;28;20084;-77
2022/05/28 06:06:52;;;;;;;13.23;2.55;;;11.10;99.90;;;;;;5092079;28;20556;-76
2022/05/28 06:09:18;;;;;;;9.65;2.33;;;11.10;99.90;;;;;;5092287;28;20040;-77
2022/05/28 06:11:43;;;;;;;17.33;2.17;;;11.80;99.90;;;;;;5073967;28;20055;-75
2022/05/28 06:14:09;;;;;;;12.95;2.00;;;11.30;99.90;;;;;;5091747;28;20089;-78
2022/05/28 06:16:35;;;;;;;16.63;2.28;;;11.30;99.90;;;;;;5092459;28;20083;-77
2022/05/28 06:19:01;;;;;;;16.65;2.95;;;11.50;99.90;;;;;;5092274;28;20040;-75
2022/05/28 06:21:27;;;;;;;13.15;2.70;;;11.60;99.90;;;;;;5071425;28;20067;-78
2022/05/28 06:23:53;;;;;;;14.63;2.33;;;11.50;99.90;;;;;;5071360;28;20052;-75
2022/05/28 06:26:19;;;;;;;16.95;2.88;;;11.80;99.90;;;;;;5071608;28;20048;-76
2022/05/28 06:28:45;;;;;;;14.07;2.55;;;11.50;99.90;;;;;;5053622;28;20049;-74
2022/05/28 06:31:13;;;;;;;12.95;2.03;;;11.40;99.90;;;;;;5071164;28;20537;-76
2022/05/28 06:33:40;;;;;;;7.43;1.40;;;11.30;99.90;;;;;;5071517;28;20048;-75
2022/05/28 06:36:08;;;;;;;10.70;1.70;;;11.30;99.90;;;;;;5071415;28;20044;-75
2022/05/28 06:38:34;;;;;;;11.00;1.67;;;11.10;99.90;;;;;;5071459;28;20416;-77
2022/05/28 06:41:00;;;;;;;8.65;1.90;;;11.20;99.90;;;;;;5071594;28;20127;-75
2022/05/28 06:43:26;;;;;;;9.70;1.63;;;11.00;99.90;;;;;;5070910;28;20119;-77
2022/05/28 06:45:53;;;;;;;8.45;1.77;;;11.20;99.90;;;;;;5071397;28;20055;-76
2022/05/28 06:48:19;;;;;;;10.73;1.52;;;11.20;99.90;;;;;;5071223;28;20054;-76
2022/05/28 06:51:03;;;;;;;11.18;1.90;;;11.20;99.90;;;;;;5053039;28;20063;-79
2022/05/28 06:53:40;;;;;;;11.75;2.00;;;11.20;99.90;;;;;;5070848;28;20098;-77
2022/05/28 06:56:06;;;;;;;8.63;1.67;;;11.10;99.90;;;;;;5071007;28;20055;-78
2022/05/28 06:58:33;;;;;;;9.35;1.50;;;10.90;99.90;;;;;;5070344;28;20372;-76
2022/05/28 07:00:59;;;;;;;7.90;1.38;;;10.80;99.90;;;;;;5069594;28;20084;-76
2022/05/28 07:03:28;;;;;;;10.77;2.13;;;10.80;99.90;;;;;;5070740;28;20094;-76
2022/05/28 07:05:54;;;;;;;10.32;1.45;;;10.80;99.90;;;;;;5052559;28;20072;-76
2022/05/28 07:08:21;;;;;;;9.25;1.67;;;10.70;99.90;;;;;;5070682;28;20681;-74
2022/05/28 07:10:52;;;;;;;11.57;1.52;;;10.90;99.90;;;;;;5070889;28;20230;-75
2022/05/28 07:13:19;;;;;;;11.82;1.90;;;10.70;99.90;;;;;;5070256;28;20647;-74
2022/05/28 07:15:45;;;;;;;12.75;1.98;;;10.90;99.90;;;;;;5070150;28;20177;-76
2022/05/28 07:18:12;;;;;;;13.27;1.83;;;10.60;99.90;;;;;;5069217;28;20136;-74
2022/05/28 07:20:38;;;;;;;17.35;2.20;;;10.60;99.90;;;;;;5081895;28;20075;-74
2022/05/28 07:23:13;;;;;;;16.17;2.20;;;10.70;99.90;;;;;;5090062;28;20096;-75
2022/05/28 07:25:39;;;;;;;;;;;10.80;99.90;;;;;;5091198;28;20051;-73
2022/05/28 07:28:24;;;;;;;17.60;2.83;;;11.00;99.90;;;;;;5090740;28;19924;-74
2022/05/28 07:30:51;;;;;;;15.73;2.92;;;11.00;99.90;;;;;;5072158;28;20063;-75
2022/05/28 07:33:17;;;;;;;18.65;2.67;;;11.10;99.90;;;;;;5090863;28;20101;-74
2022/05/28 07:35:43;;;;;;;18.70;2.47;;;11.20;99.90;;;;;;5090636;28;20040;-75
2022/05/28 07:38:09;;;;;;;16.85;2.92;;;11.20;99.90;;;;;;5090483;28;20047;-74
2022/05/28 07:40:34;;;;;;;17.38;2.35;;;11.30;99.90;;;;;;5090603;28;20044;-76
2022/05/28 07:43:00;;;;;;;19.05;3.15;;;11.40;99.90;;;;;;5071992;28;20139;-76
2022/05/28 07:45:26;;;;;;;15.90;2.35;;;11.80;99.90;;;;;;5079806;28;20058;-75
2022/05/28 07:47:52;;;;;;;20.73;3.05;;;12.00;99.90;;;;;;5070580;28;20398;-74
2022/05/28 07:50:17;;;;;;;21.73;2.75;;;12.10;99.90;;;;;;5090228;28;20044;-76
2022/05/28 07:52:44;;;;;;;18.88;3.22;;;12.10;99.90;;;;;;5090022;28;20036;-77
2022/05/28 07:55:12;;;;;;;21.08;2.85;;;12.20;99.90;;;;;;5086870;28;20074;-77
2022/05/28 07:57:37;;;;;;;21.15;3.03;;;12.50;99.90;;;;;;5090337;28;20438;-77
2022/05/28 08:00:04;;;;;;;19.40;2.92;;;12.50;99.90;;;;;;5071545;28;20055;-76
2022/05/28 08:02:30;;;;;;;19.48;3.00;;;12.90;99.90;;;;;;5089937;28;20086;-77
2022/05/28 08:04:55;;;;;;;19.02;2.92;;;12.70;99.90;;;;;;5089671;28;20051;-76
2022/05/28 08:07:21;;;;;;;12.10;2.45;;;12.80;99.90;;;;;;5072028;28;20113;-78
2022/05/28 08:09:47;;;;;;;21.25;2.42;;;12.80;99.90;;;;;;5090365;28;20376;-78
2022/05/28 08:12:12;;;;;;;28.38;3.08;;;12.80;99.90;;;;;;5090164;28;20440;-76
2022/05/28 08:14:38;;;;;;;21.23;3.67;;;12.70;99.90;;;;;;5089874;28;20137;-76
2022/05/28 08:17:04;;;;;;;14.68;2.67;;;12.70;99.90;;;;;;5089593;28;20081;-78
2022/05/28 08:19:32;;;;;;;18.08;3.72;;;12.40;99.90;;;;;;5089550;28;20032;-76
2022/05/28 08:24:42;;;;;;;26.10;3.22;;;12.30;99.90;;;;;;5090305;28;20071;-77
2022/05/28 08:27:07;;;;;;;15.93;3.00;;;12.60;99.90;;;;;;5073245;28;20403;-75
2022/05/28 08:29:33;;;;;;;26.45;3.03;;;12.40;99.90;;;;;;5086721;28;20437;-76
2022/05/28 08:31:59;;;;;;;17.20;2.58;;;12.60;99.90;;;;;;5089710;28;20491;-78
2022/05/28 08:34:24;;;;;;;22.30;3.83;;;12.30;99.90;;;;;;5092607;28;20075;-76
2022/05/28 08:36:50;;;;;;;17.98;2.88;;;12.50;99.90;;;;;;5076410;28;20509;-75
2022/05/28 08:39:16;;;;;;;22.58;3.40;;;13.00;99.90;;;;;;5092877;28;20040;-78
2022/05/28 08:41:48;;;;;;;16.63;3.60;;;13.40;99.90;;;;;;5075213;28;20051;-82
2022/05/28 08:44:21;;;;;;;16.33;2.22;;;13.30;99.90;;;;;;5075657;28;20043;-78
2022/05/28 08:46:56;;;;;;;17.60;2.40;;;13.50;99.90;;;;;;5093957;28;20699;-80
2022/05/28 08:49:27;;;;;;;22.38;2.47;;;13.90;99.90;;;;;;5075111;28;20139;-77
2022/05/28 08:52:08;;;;;;;17.73;2.97;;;14.10;99.90;;;;;;5094125;28;20067;-79
2022/05/28 08:54:40;;;;;;;17.85;3.25;;;14.30;99.90;;;;;;5093722;28;20070;-79
2022/05/28 08:57:16;;;;;;;15.45;2.83;;;14.30;99.90;;;;;;5093873;28;20122;-78
2022/05/28 09:00:08;;;;;;;16.00;2.83;;;14.10;99.90;;;;;;5075762;28;20131;-80
2022/05/28 09:02:39;;;;;;;16.80;2.85;;;13.80;99.90;;;;;;5093360;28;20097;-78
2022/05/28 09:05:19;;;;;;;19.50;2.50;;;14.10;99.90;;;;;;5093734;28;20050;-77
2022/05/28 09:07:45;;;;;;;19.50;2.85;;;14.60;99.90;;;;;;5093117;28;20552;-77
2022/05/28 09:10:11;;;;;;;16.33;2.67;;;14.50;99.90;;;;;;5093581;28;20043;-76
2022/05/28 09:12:46;;;;;;;17.38;2.50;;;14.20;99.90;;;;;;5093370;28;20048;-78
2022/05/28 09:15:12;;;;;;;13.00;2.50;;;13.90;99.90;;;;;;5074547;28;20050;-75
2022/05/28 09:17:50;;;;;;;14.20;2.60;;;13.90;99.90;;;;;;5093000;28;20487;-76
2022/05/28 09:20:23;;;;;;;8.68;1.55;;;13.70;99.90;;;;;;5093347;28;20052;-78
2022/05/28 09:22:49;;;;;;;23.10;3.38;;;13.50;99.90;;;;;;5093417;28;20066;-78
2022/05/28 09:25:22;;;;;;;14.80;2.45;;;13.20;99.90;;;;;;5091268;28;20044;-76
2022/05/28 09:28:30;;;;;;;18.05;2.53;;;13.10;99.90;;;;;;5083294;28;20051;-77
2022/05/28 09:31:23;;;;;;;19.00;2.42;;;13.00;99.90;;;;;;5081511;28;20616;-79
2022/05/28 09:33:48;;;;;;;15.20;2.63;;;13.00;99.90;;;;;;5092829;28;20075;-76
2022/05/28 09:36:42;;;;;;;18.85;2.83;;;13.20;99.90;;;;;;5079572;28;20091;-77
2022/05/28 09:39:33;;;;;;;19.58;3.00;;;13.70;99.90;;;;;;5086503;28;20044;-75
2022/05/28 09:42:06;;;;;;;19.13;3.05;;;14.10;99.90;;;;;;5092592;28;20498;-77
2022/05/28 09:44:48;;;;;;;19.20;3.13;;;14.00;99.90;;;;;;5091937;28;20039;-77
2022/05/28 09:47:19;;;;;;;18.77;2.90;;;13.80;99.90;;;;;;5092412;28;20044;-76
2022/05/28 09:49:51;;;;;;;14.32;3.03;;;13.80;99.90;;;;;;5092919;28;20046;-77
2022/05/28 09:52:30;;;;;;;16.15;2.50;;;13.50;99.90;;;;;;5092659;28;20039;-76
2022/05/28 09:55:16;;;;;;;21.95;2.90;;;13.40;99.90;;;;;;5092060;28;20047;-74
2022/05/28 09:58:05;;;;;;;18.00;2.25;;;13.40;99.90;;;;;;5092400;28;20102;-77
2022/05/28 10:00:31;;;;;;;17.35;2.40;;;13.00;99.90;;;;;;4974247;28;20059;-75
2022/05/28 10:05:55;;;;;;;10.65;2.03;;;13.00;99.90;;;;;;4974121;28;20137;-77
2022/05/28 10:08:32;;;;;;;15.32;2.50;;;13.00;99.90;;;;;;4989704;28;20042;-77
2022/05/28 10:11:01;;;;;;;13.80;2.20;;;13.10;99.90;;;;;;4990014;28;20097;-76
2022/05/28 10:13:30;;;;;;;15.10;1.88;;;13.60;99.90;;;;;;4990268;28;20073;-75
2022/05/28 10:15:58;;;;;;;13.65;2.42;;;13.60;99.90;;;;;;4990137;28;20050;-75
2022/05/28 10:18:55;;;;;;;11.48;2.10;;;14.10;99.90;;;;;;4989969;28;20066;-78
2022/05/28 10:21:37;;;;;;;11.88;2.00;;;14.10;99.90;;;;;;4982031;28;20128;-77
2022/05/28 10:24:13;;;;;;;14.40;2.08;;;14.50;99.90;;;;;;4979215;28;20552;-74
2022/05/28 10:26:44;;;;;;;15.63;2.00;;;14.70;99.90;;;;;;4973662;28;20050;-77
2022/05/28 10:29:23;;;;;;;18.70;2.33;;;14.80;99.90;;;;;;4989275;28;20572;-74
2022/05/28 10:31:51;;;;;;;11.75;1.88;;;14.80;99.90;;;;;;4973369;28;20209;-75
2022/05/28 10:34:33;;;;;;;18.55;2.45;;;14.60;99.90;;;;;;4989678;28;20124;-76
2022/05/28 10:37:12;;;;;;;10.15;2.08;;;14.80;99.90;;;;;;5015765;28;20056;-76
2022/05/28 10:39:39;;;;;;;11.27;1.90;;;15.30;99.90;;;;;;5091547;28;20087;-76
2022/05/28 10:42:08;;;;;;;18.13;2.00;;;15.60;99.90;;;;;;5091046;28;20489;-78
2022/05/28 10:44:33;;;;;;;9.85;1.60;;;15.30;99.90;;;;;;5073629;28;20360;-77
2022/05/28 10:47:14;;;;;;;11.15;2.00;;;15.10;99.90;;;;;;5091720;28;20051;-77
2022/05/28 10:49:57;;;;;;;12.50;1.90;;;14.90;99.90;;;;;;5070971;28;20139;-76
2022/05/28 10:52:45;;;;;;;15.80;2.47;;;15.30;99.90;;;;;;5070877;28;20090;-76
2022/05/28 10:55:22;;;;;;;11.32;1.52;;;15.50;99.90;;;;;;5053161;28;20091;-76
2022/05/28 10:58:07;;;;;;;9.20;2.60;;;15.70;99.90;;;;;;5069405;28;20051;-76
2022/05/28 11:01:03;;;;;;;12.75;1.90;;;16.00;99.90;;;;;;5091336;28;20048;-77
2022/05/28 11:04:04;;;;;;;11.95;2.15;;;16.20;99.90;;;;;;5084129;28;20091;-76
2022/05/28 11:06:42;;;;;;;16.40;2.00;;;15.90;99.90;;;;;;5091175;28;20137;-77
2022/05/28 11:09:37;;;;;;;15.45;2.33;;;15.50;99.90;;;;;;5091165;28;20100;-78
2022/05/28 11:12:35;;;;;;;14.10;2.40;;;15.30;99.90;;;;;;5091167;28;20048;-74
2022/05/28 11:15:25;;;;;;;17.85;2.15;;;14.90;99.90;;;;;;5090868;28;20054;-76
2022/05/28 11:18:17;;;;;;;23.50;3.05;;;15.20;99.90;;;;;;5090705;28;20048;-76
2022/05/28 11:21:07;;;;;;;14.30;2.95;;;15.40;99.90;;;;;;5088071;28;20064;-75
2022/05/28 11:24:04;;;;;;;17.52;2.63;;;15.90;99.90;;;;;;5072764;28;20109;-77
2022/05/28 11:26:46;;;;;;;17.52;2.72;;;16.00;99.90;;;;;;5089808;28;20058;-76
2022/05/28 11:29:14;;;;;;;14.88;3.20;;;15.70;99.90;;;;;;5086757;28;20075;-77
2022/05/28 11:31:54;;;;;;;13.80;3.05;;;15.40;99.90;;;;;;5090715;28;20052;-77
2022/05/28 11:34:30;;;;;;;16.00;3.20;;;15.10;99.90;;;;;;5090561;28;20048;-78
2022/05/28 11:37:05;;;;;;;16.17;3.22;;;14.90;99.90;;;;;;5072225;28;20097;-75
2022/05/28 11:40:01;;;;;;;8.60;1.40;;;14.50;99.90;;;;;;5090920;28;20083;-76
2022/05/28 11:42:31;;;;;;;13.10;2.20;;;14.20;99.90;;;;;;5090801;28;20087;-76
2022/05/28 11:45:00;;;;;;;13.43;2.38;;;14.10;99.90;;;;;;5090443;28;20036;-77
2022/05/28 11:48:07;;;;;;;10.50;2.03;;;14.10;99.90;;;;;;5090229;28;20048;-75
2022/05/28 11:53:27;;;;;;;10.25;1.90;;;14.30;99.90;;;;;;4988324;28;20054;-76
2022/05/28 11:55:58;;;;;;;19.17;2.70;;;14.70;99.90;;;;;;4988236;28;20058;-78
2022/05/28 11:58:42;;;;;;;15.00;2.05;;;15.30;99.90;;;;;;4988281;28;20153;-75
2022/05/28 12:01:11;;;;;;;14.95;2.50;;;15.40;99.90;;;;;;4970821;28;20089;-77
2022/05/28 12:03:38;;;;;;;13.57;1.73;;;15.50;99.90;;;;;;4988182;28;20049;-76
2022/05/28 12:06:03;;;;;;;12.02;1.65;;;15.90;99.90;;;;;;4987758;28;20418;-77
2022/05/28 12:08:35;;;;;;;12.18;1.33;;;15.80;99.90;;;;;;4987552;28;20097;-75
2022/05/28 12:11:22;;;;;;;8.82;1.70;;;15.60;99.90;;;;;;4988093;28;20401;-77
2022/05/28 12:13:55;;;;;;;10.75;1.80;;;15.40;99.90;;;;;;4987872;28;20092;-78
2022/05/28 12:16:21;;;;;;;10.80;1.90;;;15.40;99.90;;;;;;4987880;28;20052;-78
2022/05/28 12:19:05;;;;;;;15.77;2.72;;;15.70;99.90;;;;;;4988000;28;20150;-75
2022/05/28 12:21:40;;;;;;;17.98;2.70;;;15.20;99.90;;;;;;5045262;28;20055;-79
2022/05/28 12:24:11;;;;;;;;;;;14.90;99.90;;;;;;5090269;28;20136;-77
2022/05/28 12:26:47;;;;;;;13.70;3.15;;;14.70;99.90;;;;;;5080357;28;20298;-76
2022/05/28 12:29:39;;;;;;;12.70;3.33;;;14.70;99.90;;;;;;5083403;28;20448;-77
2022/05/28 12:32:13;;;;;;;14.60;2.20;;;14.80;99.90;;;;;;5071876;28;20134;-77
2022/05/28 12:34:53;;;;;;;11.60;2.85;;;14.80;99.90;;;;;;5089727;28;20420;-78
2022/05/28 12:37:22;;;;;;;14.00;2.67;;;15.00;99.90;;;;;;5084373;28;20123;-77
2022/05/28 12:40:04;;;;;;;26.55;2.53;;;15.00;99.90;;;;;;5089925;28;20122;-77
2022/05/28 12:42:30;;;;;;;7.72;1.52;;;14.90;99.90;;;;;;5089863;28;20152;-79
2022/05/28 12:44:57;;;;;;;10.43;1.90;;;14.70;99.90;;;;;;5090032;28;20068;-76
2022/05/28 12:47:28;;;;;;;10.38;2.50;;;14.90;99.90;;;;;;5089801;28;20048;-76
2022/05/28 12:50:10;;;;;;;9.25;1.65;;;15.20;99.90;;;;;;5071352;28;20510;-77
2022/05/28 12:53:17;;;;;;;10.55;2.05;;;15.30;99.90;;;;;;5089451;28;20091;-76
2022/05/28 12:55:43;;;;;;;8.73;1.70;;;15.30;99.90;;;;;;4987431;28;20500;-76
2022/05/28 12:58:27;;;;;;;11.32;2.17;;;15.50;99.90;;;;;;4987454;28;20086;-76
2022/05/28 13:00:58;;;;;;;8.43;1.55;;;15.70;99.90;;;;;;4987640;28;20054;-76
2022/05/28 13:03:30;;;;;;;8.75;1.42;;;16.10;99.90;;;;;;4987656;28;20046;-76
2022/05/28 13:06:04;;;;;;;12.25;1.65;;;16.20;99.90;;;;;;4987572;28;20105;-76
2022/05/28 13:08:32;;;;;;;10.60;1.40;;;16.60;99.90;;;;;;4987566;28;20105;-77